sensor_id;sensor_type;location;lat;lon;timestamp;pressure;altitude;pressure_sealevel;temperature;humidity
53480;BME280;56133;51.012;-1.648;2022-08-21T00:01:43;100711.53;;;14.37;100.00
53480;BME280;56133;51.012;-1.648;2022-08-21T00:04:10;100701.88;;;14.34;100.00
53480;BME280;56133;51.012;-1.648;2022-08-21T00:06:37;100702.00;;;14.33;100.00
53480;BME280;56133;51.012;-1.648;2022-08-21T00:09:05;100708.50;;;14.22;100.00
53480;BME280;56133;51.012;-1.648;2022-08-21T00:11:31;100709.50;;;14.21;100.00
53480;BME280;56133;51.012;-1.648;2022-08-21T00:13:57;100704.25;;;14.19;100.00
53480;BME280;56133;51.012;-1.648;2022-08-21T00:16:22;100707.72;;;14.11;100.00
53480;BME280;56133;51.012;-1.648;2022-08-21T00:18:48;100696.59;;;14.15;100.00
53480;BME280;56133;51.012;-1.648;2022-08-21T00:21:15;100688.28;;;14.08;100.00
53480;BME280;56133;51.012;-1.648;2022-08-21T00:23:41;100689.41;;;14.05;100.00
53480;BME280;56133;51.012;-1.648;2022-08-21T00:26:07;100696.91;;;14.11;100.00
53480;BME280;56133;51.012;-1.648;2022-08-21T00:28:33;100693.84;;;13.96;100.00
53480;BME280;56133;51.012;-1.648;2022-08-21T00:30:59;100699.06;;;14.08;100.00
53480;BME280;56133;51.012;-1.648;2022-08-21T00:33:25;100698.06;;;14.09;100.00
53480;BME280;56133;51.012;-1.648;2022-08-21T00:35:51;100696.03;;;14.11;100.00
53480;BME280;56133;51.012;-1.648;2022-08-21T00:38:17;100700.44;;;14.12;100.00
53480;BME280;56133;51.012;-1.648;2022-08-21T00:40:48;100700.78;;;14.09;100.00
53480;BME280;56133;51.012;-1.648;2022-08-21T00:43:16;100699.44;;;13.95;100.00
53480;BME280;56133;51.012;-1.648;2022-08-21T00:45:42;100707.53;;;13.95;100.00
53480;BME280;56133;51.012;-1.648;2022-08-21T00:48:08;100697.72;;;13.94;100.00
53480;BME280;56133;51.012;-1.648;2022-08-21T00:50:35;100701.59;;;13.91;100.00
53480;BME280;56133;51.012;-1.648;2022-08-21T00:53:04;100704.97;;;13.93;100.00
53480;BME280;56133;51.012;-1.648;2022-08-21T00:55:31;100697.56;;;13.95;100.00
53480;BME280;56133;51.012;-1.648;2022-08-21T00:57:58;100691.47;;;13.93;100.00
53480;BME280;56133;51.012;-1.648;2022-08-21T01:00:29;100692.22;;;13.86;100.00
53480;BME280;56133;51.012;-1.648;2022-08-21T01:02:59;100696.13;;;13.73;100.00
53480;BME280;56133;51.012;-1.648;2022-08-21T01:05:26;100699.13;;;13.70;100.00
53480;BME280;56133;51.012;-1.648;2022-08-21T01:07:53;100697.81;;;13.74;100.00
53480;BME280;56133;51.012;-1.648;2022-08-21T01:10:19;100696.66;;;13.77;100.00
53480;BME280;56133;51.012;-1.648;2022-08-21T01:12:45;100696.41;;;13.70;100.00
53480;BME280;56133;51.012;-1.648;2022-08-21T01:15:11;100699.69;;;13.74;100.00
53480;BME280;56133;51.012;-1.648;2022-08-21T01:17:40;100698.22;;;13.79;100.00
53480;BME280;56133;51.012;-1.648;2022-08-21T01:20:08;100686.72;;;13.77;100.00
53480;BME280;56133;51.012;-1.648;2022-08-21T01:22:34;100693.13;;;13.76;100.00
53480;BME280;56133;51.012;-1.648;2022-08-21T01:25:01;100695.16;;;13.64;100.00
53480;BME280;56133;51.012;-1.648;2022-08-21T01:27:27;100691.22;;;13.59;100.00
53480;BME280;56133;51.012;-1.648;2022-08-21T01:29:57;100686.13;;;13.56;100.00
53480;BME280;56133;51.012;-1.648;2022-08-21T01:32:25;100689.41;;;13.49;100.00
53480;BME280;56133;51.012;-1.648;2022-08-21T01:34:51;100688.31;;;13.42;100.00
53480;BME280;56133;51.012;-1.648;2022-08-21T01:37:17;100699.91;;;13.53;100.00
53480;BME280;56133;51.012;-1.648;2022-08-21T01:39:43;100690.56;;;13.47;100.00
53480;BME280;56133;51.012;-1.648;2022-08-21T01:42:09;100696.91;;;13.56;100.00
53480;BME280;56133;51.012;-1.648;2022-08-21T01:44:35;100693.97;;;13.39;100.00
53480;BME280;56133;51.012;-1.648;2022-08-21T01:47:06;100695.94;;;13.37;100.00
53480;BME280;56133;51.012;-1.648;2022-08-21T01:49:33;100691.00;;;13.42;100.00
53480;BME280;56133;51.012;-1.648;2022-08-21T01:51:58;100686.72;;;13.40;100.00
53480;BME280;56133;51.012;-1.648;2022-08-21T01:54:23;100687.06;;;13.27;100.00
53480;BME280;56133;51.012;-1.648;2022-08-21T01:56:51;100688.72;;;13.38;100.00
53480;BME280;56133;51.012;-1.648;2022-08-21T01:59:17;100686.72;;;13.40;100.00
53480;BME280;56133;51.012;-1.648;2022-08-21T02:01:42;100682.91;;;13.42;100.00
53480;BME280;56133;51.012;-1.648;2022-08-21T02:04:09;100682.47;;;13.37;100.00
53480;BME280;56133;51.012;-1.648;2022-08-21T02:06:36;100680.47;;;13.39;100.00
53480;BME280;56133;51.012;-1.648;2022-08-21T02:09:06;100692.19;;;13.20;100.00
53480;BME280;56133;51.012;-1.648;2022-08-21T02:11:32;100697.69;;;13.28;100.00
53480;BME280;56133;51.012;-1.648;2022-08-21T02:13:58;100685.16;;;13.37;100.00
53480;BME280;56133;51.012;-1.648;2022-08-21T02:16:23;100689.31;;;13.41;100.00
53480;BME280;56133;51.012;-1.648;2022-08-21T02:18:49;100691.16;;;13.31;100.00
53480;BME280;56133;51.012;-1.648;2022-08-21T02:21:14;100677.25;;;13.26;100.00
53480;BME280;56133;51.012;-1.648;2022-08-21T02:23:40;100673.31;;;13.20;100.00
53480;BME280;56133;51.012;-1.648;2022-08-21T02:26:06;100667.91;;;13.20;100.00
53480;BME280;56133;51.012;-1.648;2022-08-21T02:28:32;100668.78;;;13.11;100.00
53480;BME280;56133;51.012;-1.648;2022-08-21T02:30:58;100672.94;;;13.33;100.00
53480;BME280;56133;51.012;-1.648;2022-08-21T02:33:26;100664.22;;;13.21;100.00
53480;BME280;56133;51.012;-1.648;2022-08-21T02:35:52;100664.50;;;13.18;100.00
53480;BME280;56133;51.012;-1.648;2022-08-21T02:38:24;100665.06;;;13.12;100.00
53480;BME280;56133;51.012;-1.648;2022-08-21T02:40:52;100667.94;;;13.10;100.00
53480;BME280;56133;51.012;-1.648;2022-08-21T02:43:19;100666.81;;;13.03;100.00
53480;BME280;56133;51.012;-1.648;2022-08-21T02:45:45;100663.53;;;13.09;100.00
53480;BME280;56133;51.012;-1.648;2022-08-21T02:48:14;100668.50;;;13.04;100.00
53480;BME280;56133;51.012;-1.648;2022-08-21T02:50:43;100673.78;;;12.96;100.00
53480;BME280;56133;51.012;-1.648;2022-08-21T02:53:12;100672.50;;;12.90;100.00
53480;BME280;56133;51.012;-1.648;2022-08-21T02:55:43;100667.72;;;12.84;100.00
53480;BME280;56133;51.012;-1.648;2022-08-21T02:58:09;100674.94;;;12.83;100.00
53480;BME280;56133;51.012;-1.648;2022-08-21T03:00:36;100674.66;;;12.77;100.00
53480;BME280;56133;51.012;-1.648;2022-08-21T03:03:02;100682.72;;;12.96;100.00
53480;BME280;56133;51.012;-1.648;2022-08-21T03:05:29;100683.16;;;12.92;100.00
53480;BME280;56133;51.012;-1.648;2022-08-21T03:08:00;100688.56;;;12.92;100.00
53480;BME280;56133;51.012;-1.648;2022-08-21T03:10:27;100687.41;;;12.84;100.00
53480;BME280;56133;51.012;-1.648;2022-08-21T03:12:53;100691.84;;;12.66;100.00
53480;BME280;56133;51.012;-1.648;2022-08-21T03:15:21;100691.72;;;12.67;100.00
53480;BME280;56133;51.012;-1.648;2022-08-21T03:17:49;100695.50;;;12.65;100.00
53480;BME280;56133;51.012;-1.648;2022-08-21T03:20:19;100695.94;;;12.50;100.00
53480;BME280;56133;51.012;-1.648;2022-08-21T03:22:48;100698.53;;;12.71;100.00
53480;BME280;56133;51.012;-1.648;2022-08-21T03:25:13;100688.72;;;12.60;100.00
53480;BME280;56133;51.012;-1.648;2022-08-21T03:27:39;100685.59;;;12.65;100.00
53480;BME280;56133;51.012;-1.648;2022-08-21T03:30:06;100681.34;;;12.33;100.00
53480;BME280;56133;51.012;-1.648;2022-08-21T03:32:32;100671.69;;;12.40;100.00
53480;BME280;56133;51.012;-1.648;2022-08-21T03:34:58;100672.84;;;12.28;100.00
53480;BME280;56133;51.012;-1.648;2022-08-21T03:37:25;100671.41;;;12.24;100.00
53480;BME280;56133;51.012;-1.648;2022-08-21T03:39:51;100667.72;;;12.54;100.00
53480;BME280;56133;51.012;-1.648;2022-08-21T03:42:17;100665.91;;;12.55;100.00
53480;BME280;56133;51.012;-1.648;2022-08-21T03:44:42;100665.31;;;12.51;100.00
53480;BME280;56133;51.012;-1.648;2022-08-21T03:47:08;100658.38;;;12.58;100.00
53480;BME280;56133;51.012;-1.648;2022-08-21T03:49:34;100660.06;;;12.59;100.00
53480;BME280;56133;51.012;-1.648;2022-08-21T03:52:00;100668.28;;;12.58;100.00
53480;BME280;56133;51.012;-1.648;2022-08-21T03:54:26;100669.44;;;12.65;100.00
53480;BME280;56133;51.012;-1.648;2022-08-21T03:56:51;100660.34;;;12.76;100.00
53480;BME280;56133;51.012;-1.648;2022-08-21T03:59:17;100660.06;;;12.69;100.00
53480;BME280;56133;51.012;-1.648;2022-08-21T04:02:00;100659.63;;;12.74;100.00
53480;BME280;56133;51.012;-1.648;2022-08-21T04:04:27;100658.66;;;12.55;100.00
53480;BME280;56133;51.012;-1.648;2022-08-21T04:06:54;100656.13;;;12.54;100.00
53480;BME280;56133;51.012;-1.648;2022-08-21T04:09:20;100652.28;;;12.56;100.00
53480;BME280;56133;51.012;-1.648;2022-08-21T04:11:46;100660.78;;;12.52;100.00
53480;BME280;56133;51.012;-1.648;2022-08-21T04:14:12;100660.78;;;12.52;100.00
53480;BME280;56133;51.012;-1.648;2022-08-21T04:16:38;100649.72;;;12.55;100.00
53480;BME280;56133;51.012;-1.648;2022-08-21T04:19:04;100672.28;;;12.64;100.00
53480;BME280;56133;51.012;-1.648;2022-08-21T04:21:30;100657.94;;;12.53;100.00
53480;BME280;56133;51.012;-1.648;2022-08-21T04:23:56;100653.97;;;12.48;100.00
53480;BME280;56133;51.012;-1.648;2022-08-21T04:26:22;100656.13;;;12.44;100.00
53480;BME280;56133;51.012;-1.648;2022-08-21T04:28:47;100653.69;;;12.41;100.00
53480;BME280;56133;51.012;-1.648;2022-08-21T04:31:13;100650.84;;;12.42;100.00
53480;BME280;56133;51.012;-1.648;2022-08-21T04:33:38;100650.56;;;12.45;100.00
53480;BME280;56133;51.012;-1.648;2022-08-21T04:36:05;100660.09;;;12.50;100.00
53480;BME280;56133;51.012;-1.648;2022-08-21T04:38:32;100670.00;;;12.49;100.00
53480;BME280;56133;51.012;-1.648;2022-08-21T04:40:57;100671.41;;;12.53;100.00
53480;BME280;56133;51.012;-1.648;2022-08-21T04:43:23;100674.00;;;12.45;100.00
53480;BME280;56133;51.012;-1.648;2022-08-21T04:45:49;100662.78;;;12.40;100.00
53480;BME280;56133;51.012;-1.648;2022-08-21T04:48:19;100668.88;;;12.42;100.00
53480;BME280;56133;51.012;-1.648;2022-08-21T04:55:54;100667.72;;;12.44;100.00
53480;BME280;56133;51.012;-1.648;2022-08-21T04:58:22;100680.06;;;12.57;100.00
53480;BME280;56133;51.012;-1.648;2022-08-21T05:00:52;100684.19;;;12.61;100.00
53480;BME280;56133;51.012;-1.648;2022-08-21T05:03:19;100683.63;;;12.67;100.00
53480;BME280;56133;51.012;-1.648;2022-08-21T05:05:44;100688.47;;;12.64;100.00
53480;BME280;56133;51.012;-1.648;2022-08-21T05:08:14;100698.53;;;12.62;100.00
53480;BME280;56133;51.012;-1.648;2022-08-21T05:10:40;100694.41;;;12.57;100.00
53480;BME280;56133;51.012;-1.648;2022-08-21T05:13:07;100691.56;;;12.59;100.00
53480;BME280;56133;51.012;-1.648;2022-08-21T05:15:32;100700.50;;;12.59;100.00
53480;BME280;56133;51.012;-1.648;2022-08-21T05:17:58;100705.63;;;12.63;100.00
53480;BME280;56133;51.012;-1.648;2022-08-21T05:20:23;100709.72;;;12.57;100.00
53480;BME280;56133;51.012;-1.648;2022-08-21T05:22:48;100724.75;;;12.59;100.00
53480;BME280;56133;51.012;-1.648;2022-08-21T05:25:14;100725.88;;;12.57;100.00
53480;BME280;56133;51.012;-1.648;2022-08-21T05:27:39;100726.47;;;12.60;100.00
53480;BME280;56133;51.012;-1.648;2022-08-21T05:30:08;100731.84;;;12.60;100.00
53480;BME280;56133;51.012;-1.648;2022-08-21T05:32:35;100736.81;;;12.65;100.00
53480;BME280;56133;51.012;-1.648;2022-08-21T05:35:01;100740.78;;;12.81;100.00
53480;BME280;56133;51.012;-1.648;2022-08-21T05:37:26;100744.19;;;12.83;100.00
53480;BME280;56133;51.012;-1.648;2022-08-21T05:39:51;100732.97;;;12.78;100.00
53480;BME280;56133;51.012;-1.648;2022-08-21T05:42:17;100728.44;;;12.78;100.00
53480;BME280;56133;51.012;-1.648;2022-08-21T05:44:42;100718.06;;;12.73;100.00
53480;BME280;56133;51.012;-1.648;2022-08-21T05:47:09;100713.66;;;12.72;100.00
53480;BME280;56133;51.012;-1.648;2022-08-21T05:49:35;100711.69;;;12.84;100.00
53480;BME280;56133;51.012;-1.648;2022-08-21T05:52:02;100705.00;;;13.08;100.00
53480;BME280;56133;51.012;-1.648;2022-08-21T05:54:29;100701.81;;;13.23;100.00
53480;BME280;56133;51.012;-1.648;2022-08-21T05:56:55;100685.78;;;13.31;100.00
53480;BME280;56133;51.012;-1.648;2022-08-21T05:59:20;100692.09;;;13.49;100.00
53480;BME280;56133;51.012;-1.648;2022-08-21T06:01:46;100684.78;;;13.70;100.00
53480;BME280;56133;51.012;-1.648;2022-08-21T06:04:12;100675.19;;;13.85;100.00
53480;BME280;56133;51.012;-1.648;2022-08-21T06:06:38;100681.22;;;13.97;100.00
53480;BME280;56133;51.012;-1.648;2022-08-21T06:09:04;100679.22;;;13.71;100.00
53480;BME280;56133;51.012;-1.648;2022-08-21T06:11:30;100671.41;;;13.68;100.00
53480;BME280;56133;51.012;-1.648;2022-08-21T06:13:57;100675.22;;;13.75;100.00
53480;BME280;56133;51.012;-1.648;2022-08-21T06:16:22;100675.31;;;13.84;100.00
53480;BME280;56133;51.012;-1.648;2022-08-21T06:18:48;100681.34;;;13.77;100.00
53480;BME280;56133;51.012;-1.648;2022-08-21T06:21:14;100683.91;;;13.69;100.00
53480;BME280;56133;51.012;-1.648;2022-08-21T06:23:41;100677.97;;;13.65;100.00
53480;BME280;56133;51.012;-1.648;2022-08-21T06:26:07;100688.59;;;13.67;100.00
53480;BME280;56133;51.012;-1.648;2022-08-21T06:28:33;100688.53;;;13.59;100.00
53480;BME280;56133;51.012;-1.648;2022-08-21T06:30:59;100690.94;;;13.62;100.00
53480;BME280;56133;51.012;-1.648;2022-08-21T06:33:25;100695.03;;;13.66;100.00
53480;BME280;56133;51.012;-1.648;2022-08-21T06:35:50;100685.41;;;13.54;100.00
53480;BME280;56133;51.012;-1.648;2022-08-21T06:38:16;100686.25;;;13.64;100.00
53480;BME280;56133;51.012;-1.648;2022-08-21T06:40:42;100686.31;;;13.72;100.00
53480;BME280;56133;51.012;-1.648;2022-08-21T06:43:10;100679.09;;;13.73;100.00
53480;BME280;56133;51.012;-1.648;2022-08-21T06:45:36;100671.88;;;13.91;100.00
53480;BME280;56133;51.012;-1.648;2022-08-21T06:48:02;100659.91;;;13.94;100.00
53480;BME280;56133;51.012;-1.648;2022-08-21T06:50:28;100651.88;;;14.02;100.00
53480;BME280;56133;51.012;-1.648;2022-08-21T06:53:05;100650.59;;;14.24;100.00
53480;BME280;56133;51.012;-1.648;2022-08-21T06:55:32;100648.88;;;14.41;100.00
53480;BME280;56133;51.012;-1.648;2022-08-21T06:57:58;100641.25;;;14.19;100.00
53480;BME280;56133;51.012;-1.648;2022-08-21T07:00:25;100639.25;;;14.03;100.00
53480;BME280;56133;51.012;-1.648;2022-08-21T07:02:50;100634.53;;;14.05;100.00
53480;BME280;56133;51.012;-1.648;2022-08-21T07:05:16;100625.28;;;14.25;100.00
53480;BME280;56133;51.012;-1.648;2022-08-21T07:07:42;100628.81;;;14.26;100.00
53480;BME280;56133;51.012;-1.648;2022-08-21T07:10:08;100629.97;;;14.41;100.00
53480;BME280;56133;51.012;-1.648;2022-08-21T07:12:33;100634.06;;;13.91;100.00
53480;BME280;56133;51.012;-1.648;2022-08-21T07:14:59;100629.31;;;13.75;100.00
53480;BME280;56133;51.012;-1.648;2022-08-21T07:17:24;100617.06;;;13.81;100.00
53480;BME280;56133;51.012;-1.648;2022-08-21T07:19:49;100599.25;;;14.06;100.00
53480;BME280;56133;51.012;-1.648;2022-08-21T07:22:20;100601.88;;;14.34;100.00
53480;BME280;56133;51.012;-1.648;2022-08-21T07:24:46;100615.44;;;14.42;100.00
53480;BME280;56133;51.012;-1.648;2022-08-21T07:27:12;100615.53;;;14.33;100.00
53480;BME280;56133;51.012;-1.648;2022-08-21T07:29:37;100620.94;;;14.51;100.00
53480;BME280;56133;51.012;-1.648;2022-08-21T07:32:03;100625.81;;;14.29;100.00
53480;BME280;56133;51.012;-1.648;2022-08-21T07:34:29;100635.97;;;14.71;100.00
53480;BME280;56133;51.012;-1.648;2022-08-21T07:36:55;100639.38;;;14.74;100.00
53480;BME280;56133;51.012;-1.648;2022-08-21T07:39:20;100639.56;;;14.98;100.00
53480;BME280;56133;51.012;-1.648;2022-08-21T07:41:46;100636.75;;;15.08;100.00
53480;BME280;56133;51.012;-1.648;2022-08-21T07:44:11;100644.63;;;15.28;100.00
53480;BME280;56133;51.012;-1.648;2022-08-21T07:46:37;100634.69;;;15.37;100.00
53480;BME280;56133;51.012;-1.648;2022-08-21T07:49:02;100643.03;;;15.52;100.00
53480;BME280;56133;51.012;-1.648;2022-08-21T07:51:28;100661.66;;;15.55;100.00
53480;BME280;56133;51.012;-1.648;2022-08-21T07:53:55;100673.56;;;15.62;100.00
53480;BME280;56133;51.012;-1.648;2022-08-21T07:56:22;100673.59;;;15.70;100.00
53480;BME280;56133;51.012;-1.648;2022-08-21T07:58:48;100671.50;;;15.64;100.00
53480;BME280;56133;51.012;-1.648;2022-08-21T08:01:14;100671.56;;;15.81;100.00
53480;BME280;56133;51.012;-1.648;2022-08-21T08:03:39;100665.41;;;15.88;100.00
53480;BME280;56133;51.012;-1.648;2022-08-21T08:06:06;100664.56;;;15.96;100.00
53480;BME280;56133;51.012;-1.648;2022-08-21T08:08:33;100675.63;;;16.28;100.00
53480;BME280;56133;51.012;-1.648;2022-08-21T08:11:00;100672.78;;;16.46;100.00
53480;BME280;56133;51.012;-1.648;2022-08-21T08:13:26;100673.63;;;16.46;100.00
53480;BME280;56133;51.012;-1.648;2022-08-21T08:15:52;100677.50;;;16.52;100.00
53480;BME280;56133;51.012;-1.648;2022-08-21T08:18:18;100677.19;;;16.55;100.00
53480;BME280;56133;51.012;-1.648;2022-08-21T08:20:43;100680.75;;;16.56;100.00
53480;BME280;56133;51.012;-1.648;2022-08-21T08:23:11;100683.09;;;16.42;100.00
53480;BME280;56133;51.012;-1.648;2022-08-21T08:25:36;100677.69;;;16.67;100.00
53480;BME280;56133;51.012;-1.648;2022-08-21T08:28:02;100674.66;;;16.70;100.00
53480;BME280;56133;51.012;-1.648;2022-08-21T08:30:28;100676.00;;;16.91;100.00
53480;BME280;56133;51.012;-1.648;2022-08-21T08:32:53;100683.28;;;17.07;100.00
53480;BME280;56133;51.012;-1.648;2022-08-21T08:35:19;100677.88;;;17.15;100.00
53480;BME280;56133;51.012;-1.648;2022-08-21T08:37:44;100678.72;;;17.07;100.00
53480;BME280;56133;51.012;-1.648;2022-08-21T08:40:32;100688.03;;;17.13;100.00
53480;BME280;56133;51.012;-1.648;2022-08-21T08:43:00;100692.28;;;17.07;100.00
53480;BME280;56133;51.012;-1.648;2022-08-21T08:45:26;100695.44;;;17.36;100.00
53480;BME280;56133;51.012;-1.648;2022-08-21T08:48:01;100699.69;;;17.38;100.00
53480;BME280;56133;51.012;-1.648;2022-08-21T08:50:52;100696.94;;;17.55;100.00
53480;BME280;56133;51.012;-1.648;2022-08-21T08:53:22;100701.06;;;17.82;100.00
53480;BME280;56133;51.012;-1.648;2022-08-21T08:55:52;100697.41;;;18.07;100.00
53480;BME280;56133;51.012;-1.648;2022-08-21T08:58:27;100706.06;;;18.02;95.26
53480;BME280;56133;51.012;-1.648;2022-08-21T09:00:56;100700.84;;;17.92;98.43
53480;BME280;56133;51.012;-1.648;2022-08-21T09:03:23;100705.13;;;18.26;97.83
53480;BME280;56133;51.012;-1.648;2022-08-21T09:11:29;100690.91;;;18.86;90.88
53480;BME280;56133;51.012;-1.648;2022-08-21T09:14:12;100689.09;;;19.16;93.94
53480;BME280;56133;51.012;-1.648;2022-08-21T09:21:52;100694.09;;;19.58;84.54
53480;BME280;56133;51.012;-1.648;2022-08-21T09:24:32;100691.09;;;19.52;87.45
53480;BME280;56133;51.012;-1.648;2022-08-21T09:27:08;100684.78;;;19.97;82.81
53480;BME280;56133;51.012;-1.648;2022-08-21T09:29:37;100679.44;;;19.89;83.80
53480;BME280;56133;51.012;-1.648;2022-08-21T09:32:11;100671.53;;;19.94;83.61
53480;BME280;56133;51.012;-1.648;2022-08-21T09:34:40;100665.03;;;19.80;82.02
53480;BME280;56133;51.012;-1.648;2022-08-21T09:37:16;100678.81;;;20.08;81.67
53480;BME280;56133;51.012;-1.648;2022-08-21T09:39:42;100675.06;;;20.09;85.07
53480;BME280;56133;51.012;-1.648;2022-08-21T09:42:09;100671.44;;;20.24;84.66
53480;BME280;56133;51.012;-1.648;2022-08-21T09:44:38;100677.13;;;20.07;81.02
53480;BME280;56133;51.012;-1.648;2022-08-21T09:47:06;100665.78;;;19.89;82.06
53480;BME280;56133;51.012;-1.648;2022-08-21T09:49:37;100661.69;;;20.14;81.76
53480;BME280;56133;51.012;-1.648;2022-08-21T09:52:10;100652.13;;;20.47;83.13
53480;BME280;56133;51.012;-1.648;2022-08-21T09:54:40;100649.91;;;20.79;76.80
53480;BME280;56133;51.012;-1.648;2022-08-21T09:59:53;100648.13;;;21.21;78.51
53480;BME280;56133;51.012;-1.648;2022-08-21T10:02:29;100657.94;;;21.09;70.94
53480;BME280;56133;51.012;-1.648;2022-08-21T10:05:01;100664.09;;;21.18;69.65
53480;BME280;56133;51.012;-1.648;2022-08-21T10:07:30;100662.09;;;20.76;69.81
53480;BME280;56133;51.012;-1.648;2022-08-21T10:15:27;100666.69;;;21.33;72.55
53480;BME280;56133;51.012;-1.648;2022-08-21T10:18:16;100667.41;;;21.48;67.18
53480;BME280;56133;51.012;-1.648;2022-08-21T10:21:05;100671.75;;;21.36;66.48
53480;BME280;56133;51.012;-1.648;2022-08-21T10:23:51;100658.25;;;21.63;68.18
53480;BME280;56133;51.012;-1.648;2022-08-21T10:32:08;100672.44;;;21.45;67.57
53480;BME280;56133;51.012;-1.648;2022-08-21T10:40:26;100650.75;;;23.80;58.43
53480;BME280;56133;51.012;-1.648;2022-08-21T10:48:05;100645.47;;;24.17;57.40
53480;BME280;56133;51.012;-1.648;2022-08-21T10:50:42;100647.94;;;24.32;53.69
53480;BME280;56133;51.012;-1.648;2022-08-21T10:53:39;100645.91;;;24.21;52.34
53480;BME280;56133;51.012;-1.648;2022-08-21T10:56:15;100646.75;;;23.76;52.65
53480;BME280;56133;51.012;-1.648;2022-08-21T10:58:57;100653.78;;;24.75;50.28
53480;BME280;56133;51.012;-1.648;2022-08-21T11:04:24;100642.84;;;26.59;50.59
53480;BME280;56133;51.012;-1.648;2022-08-21T11:07:16;100645.19;;;26.20;48.69
53480;BME280;56133;51.012;-1.648;2022-08-21T11:09:47;100643.41;;;25.39;48.44
53480;BME280;56133;51.012;-1.648;2022-08-21T11:12:29;100633.91;;;25.72;50.17
53480;BME280;56133;51.012;-1.648;2022-08-21T11:15:16;100636.16;;;25.64;48.95
53480;BME280;56133;51.012;-1.648;2022-08-21T11:17:49;100636.22;;;25.75;51.34
53480;BME280;56133;51.012;-1.648;2022-08-21T11:30:24;100632.38;;;26.26;43.93
53480;BME280;56133;51.012;-1.648;2022-08-21T11:32:57;100626.41;;;26.41;40.69
53480;BME280;56133;51.012;-1.648;2022-08-21T11:43:43;100645.91;;;27.05;40.19
53480;BME280;56133;51.012;-1.648;2022-08-21T11:54:59;100646.69;;;24.85;45.52
53480;BME280;56133;51.012;-1.648;2022-08-21T11:57:31;100643.75;;;24.30;46.41
53480;BME280;56133;51.012;-1.648;2022-08-21T12:00:04;100639.31;;;23.90;47.77
53480;BME280;56133;51.012;-1.648;2022-08-21T12:02:38;100648.03;;;23.73;47.78
53480;BME280;56133;51.012;-1.648;2022-08-21T12:05:09;100632.91;;;24.03;49.80
53480;BME280;56133;51.012;-1.648;2022-08-21T12:07:43;100633.38;;;24.32;49.94
53480;BME280;56133;51.012;-1.648;2022-08-21T12:10:18;100637.59;;;24.60;49.02
53480;BME280;56133;51.012;-1.648;2022-08-21T12:12:47;100629.25;;;26.22;42.33
53480;BME280;56133;51.012;-1.648;2022-08-21T12:15:26;100625.16;;;27.79;41.37
53480;BME280;56133;51.012;-1.648;2022-08-21T12:17:55;100619.88;;;27.78;38.47
53480;BME280;56133;51.012;-1.648;2022-08-21T12:25:41;100628.59;;;26.39;40.35
53480;BME280;56133;51.012;-1.648;2022-08-21T12:28:10;100627.47;;;26.28;40.41
53480;BME280;56133;51.012;-1.648;2022-08-21T12:30:40;100622.03;;;26.63;41.47
53480;BME280;56133;51.012;-1.648;2022-08-21T12:33:34;100634.31;;;25.39;41.49
53480;BME280;56133;51.012;-1.648;2022-08-21T12:36:07;100639.63;;;25.15;44.01
53480;BME280;56133;51.012;-1.648;2022-08-21T12:38:59;100637.63;;;24.28;47.93
53480;BME280;56133;51.012;-1.648;2022-08-21T12:41:32;100639.22;;;23.64;51.78
53480;BME280;56133;51.012;-1.648;2022-08-21T12:44:04;100631.03;;;23.44;52.42
53480;BME280;56133;51.012;-1.648;2022-08-21T12:46:46;100631.91;;;23.31;53.75
53480;BME280;56133;51.012;-1.648;2022-08-21T12:51:54;100634.09;;;22.55;58.10
53480;BME280;56133;51.012;-1.648;2022-08-21T12:54:29;100627.31;;;22.31;59.19
53480;BME280;56133;51.012;-1.648;2022-08-21T12:56:57;100626.88;;;22.27;57.84
53480;BME280;56133;51.012;-1.648;2022-08-21T12:59:23;100619.69;;;22.06;58.37
53480;BME280;56133;51.012;-1.648;2022-08-21T13:01:50;100632.34;;;22.14;60.52
53480;BME280;56133;51.012;-1.648;2022-08-21T13:04:41;100625.84;;;22.22;59.63
53480;BME280;56133;51.012;-1.648;2022-08-21T13:07:09;100627.13;;;22.33;59.21
53480;BME280;56133;51.012;-1.648;2022-08-21T13:09:44;100624.56;;;22.31;58.62
53480;BME280;56133;51.012;-1.648;2022-08-21T13:12:12;100625.59;;;22.23;58.62
53480;BME280;56133;51.012;-1.648;2022-08-21T13:14:42;100624.97;;;22.14;57.94
53480;BME280;56133;51.012;-1.648;2022-08-21T13:17:10;100622.31;;;22.48;59.41
53480;BME280;56133;51.012;-1.648;2022-08-21T13:19:37;100628.44;;;22.57;60.12
53480;BME280;56133;51.012;-1.648;2022-08-21T13:22:03;100624.00;;;22.56;56.55
53480;BME280;56133;51.012;-1.648;2022-08-21T13:24:37;100619.78;;;22.80;56.35
53480;BME280;56133;51.012;-1.648;2022-08-21T13:27:02;100615.97;;;22.88;55.98
53480;BME280;56133;51.012;-1.648;2022-08-21T13:29:31;100607.09;;;23.13;57.05
53480;BME280;56133;51.012;-1.648;2022-08-21T13:32:03;100608.41;;;23.62;57.65
53480;BME280;56133;51.012;-1.648;2022-08-21T13:34:35;100604.78;;;23.69;57.25
53480;BME280;56133;51.012;-1.648;2022-08-21T13:37:07;100613.13;;;23.87;56.74
53480;BME280;56133;51.012;-1.648;2022-08-21T13:39:33;100605.44;;;23.64;53.99
53480;BME280;56133;51.012;-1.648;2022-08-21T13:42:01;100603.78;;;23.56;56.07
53480;BME280;56133;51.012;-1.648;2022-08-21T13:44:45;100606.75;;;23.55;53.67
53480;BME280;56133;51.012;-1.648;2022-08-21T13:47:12;100614.44;;;23.26;54.82
53480;BME280;56133;51.012;-1.648;2022-08-21T13:49:50;100600.56;;;23.14;56.30
53480;BME280;56133;51.012;-1.648;2022-08-21T13:52:24;100596.13;;;23.06;53.60
53480;BME280;56133;51.012;-1.648;2022-08-21T13:54:59;100592.81;;;23.56;57.27
53480;BME280;56133;51.012;-1.648;2022-08-21T13:59:52;100598.56;;;23.48;52.17
53480;BME280;56133;51.012;-1.648;2022-08-21T14:02:23;100586.31;;;23.89;55.51